This is the latest recevied weather packets stored in our database for station/object JH1LWU-13. If no packets are shown the sender has not sent any weather packets the latest 10 day(s).
| Time | Temp. | Humidity | Pressure | Rain* | Wind** | Luminosity | Snow |
|---|---|---|---|---|---|---|---|
| 1787841991 | 24.44° C | 73% | 1005 hPa | - | - | - | - |
| 1787840190 | 24.44° C | 74% | 1006 hPa | - | - | - | - |
| 1787838389 | 24.44° C | 73% | 1005 hPa | - | - | - | - |
| 1787836588 | 24.44° C | 71% | 1006 hPa | - | - | - | - |
| 1787834787 | 24.44° C | 71% | 1005 hPa | - | - | - | - |
| 1787832986 | 23.89° C | 74% | 1005 hPa | - | - | - | - |
| 1787831185 | 23.89° C | 75% | 1005 hPa | - | - | - | - |
| 1787829384 | 23.33° C | 77% | 1004 hPa | - | - | - | - |
| 1787827583 | 22.78° C | 77% | 1006 hPa | - | - | - | - |
| 1787825782 | 22.78° C | 75% | 1005 hPa | - | - | - | - |
| 1787823981 | 22.78° C | 75% | 1005 hPa | - | - | - | - |
| 1787822180 | 22.78° C | 77% | 1007 hPa | - | - | - | - |
| 1787820379 | 22.22° C | 77% | 1006 hPa | - | - | - | - |
| 1787818578 | 22.78° C | 76% | 1006 hPa | - | - | - | - |
| 1787816777 | 22.78° C | 77% | 1007 hPa | - | - | - | - |
| 1787814976 | 24.44° C | 69% | 1008 hPa | - | - | - | - |
| 1787813175 | 24.44° C | 70% | 1007 hPa | - | - | - | - |
| 1787811374 | 25° C | 68% | 1007 hPa | - | - | - | - |
| 1787809573 | 26.11° C | 61% | 1008 hPa | - | - | - | - |
| 1787807772 | 27.22° C | 60% | 1007 hPa | - | - | - | - |
| 1787805971 | 27.78° C | 56% | 1007 hPa | - | - | - | - |
| 1787804170 | 27.22° C | 57% | 1007 hPa | - | - | - | - |
| 1787802369 | 28.89° C | 53% | 1007 hPa | - | - | - | - |
| 1787800568 | 30° C | 59% | 1006 hPa | - | - | - | - |
| 1787798767 | 30.56° C | 56% | 1008 hPa | - | - | - | - |
* Rain since midnight (hover to see other rain measurements)
** Current wind speed in m/s (hover to see current wind gust speed)